createdAt,value
2022-09-14T00:01:34.652Z,18.19
2022-09-14T00:04:12.397Z,18.23
2022-09-14T00:06:40.362Z,18.18
2022-09-14T00:09:08.136Z,18.22
2022-09-14T00:11:37.060Z,18.21
2022-09-14T00:14:05.700Z,18.13
2022-09-14T00:16:38.385Z,18.05
2022-09-14T00:19:13.455Z,18.07
2022-09-14T00:21:42.393Z,18.08
2022-09-14T00:24:11.979Z,18.13
2022-09-14T00:26:38.628Z,18.12
2022-09-14T00:29:06.537Z,18.05
2022-09-14T00:31:38.114Z,18.07
2022-09-14T00:34:07.837Z,18.03
2022-09-14T00:36:51.914Z,18.07
2022-09-14T00:39:21.739Z,18.01
2022-09-14T00:41:50.055Z,17.98
2022-09-14T00:44:16.561Z,18.08
2022-09-14T00:46:50.459Z,18.05
2022-09-14T00:49:38.067Z,18.05
2022-09-14T00:52:20.353Z,18.03
2022-09-14T00:54:53.342Z,18.00
2022-09-14T00:57:21.576Z,17.91
2022-09-14T00:59:52.088Z,17.96
2022-09-14T01:02:22.442Z,17.88
2022-09-14T01:04:51.117Z,17.91
2022-09-14T01:07:42.292Z,17.91
2022-09-14T01:10:28.821Z,18.01
2022-09-14T01:13:04.280Z,18.03
2022-09-14T01:15:53.371Z,17.95
2022-09-14T01:18:37.819Z,18.00
2022-09-14T01:21:15.906Z,17.99
2022-09-14T01:24:16.605Z,18.02
2022-09-14T01:27:20.148Z,17.99
2022-09-14T01:30:09.357Z,17.87
2022-09-14T01:33:08.074Z,17.86
2022-09-14T01:35:46.634Z,17.80
2022-09-14T01:38:40.178Z,17.70
2022-09-14T01:41:14.504Z,17.79
2022-09-14T01:43:58.458Z,17.86
2022-09-14T01:46:45.448Z,17.88
2022-09-14T01:49:21.490Z,17.88
2022-09-14T01:54:37.794Z,17.77
2022-09-14T01:57:29.237Z,17.78
2022-09-14T02:00:03.621Z,17.70
2022-09-14T02:02:58.912Z,17.70
2022-09-14T02:05:40.185Z,17.56
2022-09-14T02:08:06.972Z,17.62
2022-09-14T02:10:34.856Z,17.53
2022-09-14T02:13:02.217Z,17.46
2022-09-14T02:15:29.283Z,17.43
2022-09-14T02:17:56.266Z,17.39
2022-09-14T02:20:37.697Z,17.46
2022-09-14T02:23:05.489Z,17.47
2022-09-14T02:25:32.934Z,17.48
2022-09-14T02:27:59.541Z,17.56
2022-09-14T02:30:28.010Z,17.57
2022-09-14T02:33:26.073Z,17.48
2022-09-14T02:36:07.274Z,17.36
2022-09-14T02:39:14.725Z,17.32
2022-09-14T02:41:54.457Z,17.24
2022-09-14T02:44:53.804Z,17.36
2022-09-14T02:47:39.366Z,17.43
2022-09-14T02:50:24.360Z,17.50
2022-09-14T02:53:01.844Z,17.41
2022-09-14T02:55:42.971Z,17.38
2022-09-14T02:58:13.043Z,17.30
2022-09-14T03:00:49.085Z,17.30
2022-09-14T03:03:20.126Z,17.32
2022-09-14T03:05:47.572Z,17.33
2022-09-14T03:08:14.497Z,17.37
2022-09-14T03:10:44.201Z,17.50
2022-09-14T03:13:11.891Z,17.57
2022-09-14T03:15:39.108Z,17.51
2022-09-14T03:18:11.081Z,17.33
2022-09-14T03:20:39.324Z,17.37
2022-09-14T03:23:09.180Z,17.36
2022-09-14T03:25:44.455Z,17.42
2022-09-14T03:28:12.747Z,17.48
2022-09-14T03:30:39.755Z,17.50
2022-09-14T03:33:06.665Z,17.51
2022-09-14T03:35:33.582Z,17.41
2022-09-14T03:38:03.025Z,17.31
2022-09-14T03:40:30.419Z,17.37
2022-09-14T03:42:57.267Z,17.41
2022-09-14T03:45:23.910Z,17.49
2022-09-14T03:47:51.102Z,17.50
2022-09-14T03:50:20.065Z,17.57
2022-09-14T03:52:47.603Z,17.50
2022-09-14T03:55:14.574Z,17.60
2022-09-14T03:57:41.328Z,17.61
2022-09-14T04:00:09.181Z,17.58
2022-09-14T04:02:35.859Z,17.60
2022-09-14T04:05:02.764Z,17.58
2022-09-14T04:07:30.425Z,17.44
2022-09-14T04:09:57.305Z,17.54
2022-09-14T04:12:24.556Z,17.41
2022-09-14T04:14:51.430Z,17.36
2022-09-14T04:17:18.372Z,17.33
2022-09-14T04:19:45.081Z,17.15
2022-09-14T04:22:12.062Z,17.04
2022-09-14T04:24:39.107Z,17.07
2022-09-14T04:27:08.926Z,17.12
2022-09-14T04:29:35.601Z,17.24
2022-09-14T04:32:02.871Z,17.31
2022-09-14T04:34:29.582Z,17.28
2022-09-14T04:37:15.171Z,17.19
2022-09-14T04:39:43.397Z,17.17
2022-09-14T04:42:10.065Z,17.10
2022-09-14T04:44:36.661Z,17.05
2022-09-14T04:47:03.756Z,17.03
2022-09-14T04:49:30.952Z,17.05
2022-09-14T04:51:57.726Z,17.00
2022-09-14T04:54:25.158Z,17.07
2022-09-14T04:56:51.859Z,17.05
2022-09-14T04:59:18.553Z,16.99
2022-09-14T05:01:47.870Z,17.05
2022-09-14T05:04:15.997Z,17.08
2022-09-14T05:06:44.416Z,17.04
2022-09-14T05:09:15.868Z,16.96
2022-09-14T05:11:43.415Z,17.02
2022-09-14T05:14:13.330Z,16.92
2022-09-14T05:16:42.681Z,17.01
2022-09-14T05:19:14.531Z,16.92
2022-09-14T05:21:41.556Z,16.92
2022-09-14T05:24:14.941Z,16.94
2022-09-14T05:26:44.073Z,16.82
2022-09-14T05:29:18.183Z,16.96
2022-09-14T05:31:46.368Z,16.87
2022-09-14T05:34:13.607Z,16.95
2022-09-14T05:36:52.609Z,16.87
2022-09-14T05:39:23.127Z,16.82
2022-09-14T05:41:50.817Z,16.82
2022-09-14T05:44:17.986Z,16.69
2022-09-14T05:46:44.741Z,16.69
2022-09-14T05:49:11.336Z,16.58
2022-09-14T05:51:37.871Z,16.71
2022-09-14T05:54:10.246Z,16.67
2022-09-14T05:56:37.132Z,16.63
2022-09-14T05:59:04.175Z,16.62
2022-09-14T06:01:33.022Z,16.67
2022-09-14T06:04:02.521Z,16.64
2022-09-14T06:06:31.935Z,16.64
2022-09-14T06:09:00.678Z,16.63
2022-09-14T06:11:33.081Z,16.57
2022-09-14T06:14:00.472Z,16.59
2022-09-14T06:16:29.140Z,16.56
2022-09-14T06:18:58.959Z,16.59
2022-09-14T06:21:34.885Z,16.52
2022-09-14T06:24:01.609Z,16.54
2022-09-14T06:26:28.630Z,16.50
2022-09-14T06:28:55.533Z,16.50
2022-09-14T06:31:25.522Z,16.51
2022-09-14T06:33:53.829Z,16.68
2022-09-14T06:36:25.384Z,16.65
2022-09-14T06:38:54.512Z,16.60
2022-09-14T06:41:27.094Z,16.74
2022-09-14T06:43:57.192Z,16.83
2022-09-14T06:46:33.731Z,16.74
2022-09-14T06:49:11.905Z,16.82
2022-09-14T06:51:47.717Z,16.77
2022-09-14T06:54:16.536Z,16.89
2022-09-14T06:56:45.683Z,17.05
2022-09-14T06:59:15.456Z,17.08
2022-09-14T07:01:45.525Z,17.18
2022-09-14T07:04:12.990Z,17.22
2022-09-14T07:06:49.924Z,17.28
2022-09-14T07:09:19.664Z,17.23
2022-09-14T07:11:59.247Z,17.32
2022-09-14T07:14:30.362Z,17.34
2022-09-14T07:16:59.259Z,17.26
2022-09-14T07:19:26.197Z,17.27
2022-09-14T07:21:54.898Z,17.35
2022-09-14T07:24:21.888Z,17.28
2022-09-14T07:27:04.396Z,17.35
2022-09-14T07:29:37.723Z,17.28
2022-09-14T07:32:04.642Z,17.38
2022-09-14T07:34:31.596Z,17.32
2022-09-14T07:36:58.273Z,17.33
2022-09-14T07:39:25.232Z,17.30
2022-09-14T07:41:52.056Z,17.43
2022-09-14T07:44:18.843Z,17.41
2022-09-14T07:46:47.024Z,17.44
2022-09-14T07:49:16.627Z,17.51
2022-09-14T07:51:44.286Z,17.60
2022-09-14T07:54:16.935Z,17.63
2022-09-14T07:56:45.231Z,17.53
2022-09-14T08:02:01.590Z,17.78
2022-09-14T08:04:28.532Z,17.76
2022-09-14T08:06:55.321Z,17.58
2022-09-14T08:09:22.191Z,17.67
2022-09-14T08:11:49.044Z,17.79
2022-09-14T08:14:15.824Z,17.91
2022-09-14T08:16:42.766Z,17.84
2022-09-14T08:19:16.983Z,17.78
2022-09-14T08:21:47.071Z,17.75
2022-09-14T08:24:19.101Z,17.89
2022-09-14T08:26:53.869Z,17.92
2022-09-14T08:29:20.623Z,18.12
2022-09-14T08:31:51.486Z,18.11
2022-09-14T08:34:19.048Z,18.23
2022-09-14T08:36:47.692Z,18.25
2022-09-14T08:39:17.165Z,18.26
2022-09-14T08:41:44.124Z,18.32
2022-09-14T08:44:51.715Z,18.32
2022-09-14T08:47:28.858Z,18.39
2022-09-14T08:50:06.506Z,18.54
2022-09-14T08:52:44.014Z,18.65
2022-09-14T08:55:48.559Z,18.71
2022-09-14T08:58:47.609Z,18.77
2022-09-14T09:01:46.152Z,18.70
2022-09-14T09:04:31.783Z,18.79
2022-09-14T09:07:21.492Z,18.92
2022-09-14T09:09:56.503Z,18.90
2022-09-14T09:12:36.241Z,18.85
2022-09-14T09:15:37.324Z,18.95
2022-09-14T09:18:19.180Z,19.05
2022-09-14T09:21:04.702Z,19.06
2022-09-14T09:23:33.865Z,19.15
2022-09-14T09:26:09.704Z,19.20
2022-09-14T09:28:49.439Z,19.29
2022-09-14T09:31:20.234Z,19.19
2022-09-14T09:33:49.825Z,19.22
2022-09-14T09:36:18.598Z,19.15
2022-09-14T09:38:45.578Z,19.09
2022-09-14T09:41:24.745Z,18.94
2022-09-14T09:44:03.352Z,18.80
2022-09-14T09:46:35.293Z,18.81
2022-09-14T09:49:18.415Z,18.64
2022-09-14T09:51:46.326Z,18.45
2022-09-14T09:54:13.000Z,18.50
2022-09-14T09:56:51.961Z,18.43
2022-09-14T09:59:44.327Z,18.45
2022-09-14T10:02:30.098Z,18.40
2022-09-14T10:05:07.145Z,18.47
2022-09-14T10:07:40.992Z,18.50
2022-09-14T10:10:15.313Z,18.45
2022-09-14T10:12:54.909Z,18.45
2022-09-14T10:15:28.932Z,18.45
2022-09-14T10:18:12.267Z,18.57
2022-09-14T10:21:07.024Z,18.60
2022-09-14T10:23:38.703Z,18.63
2022-09-14T10:26:27.304Z,18.70
2022-09-14T10:28:55.175Z,18.89
2022-09-14T10:31:37.360Z,18.87
2022-09-14T10:34:20.653Z,18.85
2022-09-14T10:37:06.912Z,18.83
2022-09-14T10:39:52.706Z,18.80
2022-09-14T10:42:35.591Z,18.81
2022-09-14T10:45:20.624Z,18.89
2022-09-14T10:48:44.014Z,18.98
2022-09-14T10:51:35.331Z,19.17
2022-09-14T10:55:02.691Z,19.29
2022-09-14T10:58:25.787Z,19.49
2022-09-14T11:01:18.565Z,19.53
2022-09-14T11:04:25.138Z,19.50
2022-09-14T11:07:25.701Z,19.46
2022-09-14T11:10:39.395Z,19.46
2022-09-14T11:13:27.804Z,19.57
2022-09-14T11:16:47.724Z,19.63
2022-09-14T11:19:20.356Z,19.80
2022-09-14T11:22:42.266Z,19.87
2022-09-14T11:25:31.631Z,19.77
2022-09-14T11:28:07.172Z,19.69
2022-09-14T11:30:50.322Z,19.74
2022-09-14T11:33:38.211Z,19.75
2022-09-14T11:36:47.386Z,19.71
2022-09-14T11:39:24.794Z,19.73
2022-09-14T11:41:59.916Z,19.89
2022-09-14T11:44:38.624Z,19.88
2022-09-14T11:47:20.436Z,20.15
2022-09-14T11:50:24.052Z,20.35
2022-09-14T11:53:20.083Z,20.43
2022-09-14T11:55:50.753Z,20.48
2022-09-14T11:58:21.783Z,20.61
2022-09-14T12:01:04.040Z,20.63
2022-09-14T12:04:06.044Z,20.66
2022-09-14T12:06:35.673Z,20.60
2022-09-14T12:09:17.785Z,20.71
2022-09-14T12:11:46.409Z,20.60
2022-09-14T12:14:41.202Z,20.80
2022-09-14T12:17:39.943Z,20.90
2022-09-14T12:20:40.950Z,20.99
2022-09-14T12:23:42.046Z,20.87
2022-09-14T12:26:12.024Z,20.89
2022-09-14T12:28:56.802Z,21.02
2022-09-14T12:32:02.938Z,21.15
2022-09-14T12:34:33.282Z,21.20
2022-09-14T12:37:11.914Z,21.22
2022-09-14T12:39:38.950Z,21.08
2022-09-14T12:42:34.700Z,21.20
2022-09-14T12:46:03.985Z,21.27
2022-09-14T12:48:48.707Z,21.26
2022-09-14T12:51:34.776Z,21.33
2022-09-14T12:54:07.994Z,21.22
2022-09-14T12:56:40.800Z,21.32
2022-09-14T13:00:06.647Z,21.63
2022-09-14T13:03:00.839Z,21.81
2022-09-14T13:05:33.275Z,21.90
2022-09-14T13:08:01.024Z,21.86
2022-09-14T13:10:36.358Z,21.90
2022-09-14T13:13:17.766Z,21.99
2022-09-14T13:16:07.062Z,22.13
2022-09-14T13:18:37.586Z,22.01
2022-09-14T13:21:23.637Z,21.83
2022-09-14T13:23:51.345Z,21.74
2022-09-14T13:26:26.559Z,21.72
2022-09-14T13:28:58.655Z,21.79
2022-09-14T13:31:34.889Z,21.88
2022-09-14T13:34:05.613Z,21.92
2022-09-14T13:36:40.501Z,21.92
2022-09-14T13:39:30.237Z,21.92
2022-09-14T13:41:58.572Z,22.10
2022-09-14T13:44:33.618Z,22.14
2022-09-14T13:47:05.695Z,22.27
2022-09-14T13:49:36.237Z,22.35
2022-09-14T13:52:21.776Z,22.62
2022-09-14T13:55:21.570Z,22.50
2022-09-14T13:58:19.372Z,22.42
2022-09-14T14:01:03.992Z,22.25
2022-09-14T14:03:48.479Z,22.16
2022-09-14T14:06:30.199Z,22.01
2022-09-14T14:09:09.573Z,21.68
2022-09-14T14:11:52.359Z,21.43
2022-09-14T14:14:30.141Z,21.27
2022-09-14T14:17:13.128Z,21.20
2022-09-14T14:19:40.857Z,21.04
2022-09-14T14:22:27.693Z,20.85
2022-09-14T14:25:12.727Z,20.78
2022-09-14T14:27:46.832Z,20.63
2022-09-14T14:30:17.264Z,20.69
2022-09-14T14:32:48.901Z,20.64
2022-09-14T14:35:19.961Z,20.55
2022-09-14T14:37:47.762Z,20.42
2022-09-14T14:40:16.850Z,20.41
2022-09-14T14:42:44.795Z,20.45
2022-09-14T14:45:21.639Z,20.29
2022-09-14T14:47:53.187Z,20.17
2022-09-14T14:50:27.273Z,20.10
2022-09-14T14:52:54.596Z,19.81
2022-09-14T14:55:23.756Z,19.62
2022-09-14T14:57:51.980Z,19.39
2022-09-14T15:00:24.535Z,19.08
2022-09-14T15:02:51.537Z,18.86
2022-09-14T15:05:19.415Z,18.61
2022-09-14T15:07:46.846Z,18.62
2022-09-14T15:10:16.524Z,18.70
2022-09-14T15:12:44.515Z,18.52
2022-09-14T15:15:19.783Z,18.59
2022-09-14T15:17:46.668Z,18.54
2022-09-14T15:20:13.923Z,18.49
2022-09-14T15:22:42.394Z,18.57
2022-09-14T15:25:12.363Z,18.48
2022-09-14T15:27:45.446Z,18.49
2022-09-14T15:30:13.688Z,18.41
2022-09-14T15:32:41.188Z,18.34
2022-09-14T15:35:13.444Z,18.32
2022-09-14T15:37:41.184Z,18.31
2022-09-14T15:40:09.367Z,18.28
2022-09-14T15:42:36.029Z,18.32
2022-09-14T15:45:04.158Z,18.36
2022-09-14T15:47:34.175Z,18.33
2022-09-14T15:50:03.673Z,18.37
2022-09-14T15:52:30.255Z,18.31
2022-09-14T15:54:56.822Z,18.25
2022-09-14T15:57:23.393Z,18.28
2022-09-14T15:59:50.119Z,18.39
2022-09-14T16:02:20.250Z,18.49
2022-09-14T16:04:47.030Z,18.49
2022-09-14T16:07:14.184Z,18.55
2022-09-14T16:09:41.758Z,18.62
2022-09-14T16:12:11.154Z,18.63
2022-09-14T16:14:38.032Z,18.60
2022-09-14T16:17:06.765Z,18.68
2022-09-14T16:19:33.311Z,18.59
2022-09-14T16:22:00.485Z,18.62
2022-09-14T16:24:28.638Z,18.59
2022-09-14T16:27:14.220Z,18.54
2022-09-14T16:29:43.023Z,18.59
2022-09-14T16:32:09.838Z,18.63
2022-09-14T16:34:37.845Z,18.59
2022-09-14T16:37:04.560Z,18.66
2022-09-14T16:39:31.713Z,18.67
2022-09-14T16:41:59.857Z,18.63
2022-09-14T16:44:28.415Z,18.71
2022-09-14T16:46:57.691Z,18.65
2022-09-14T16:49:27.995Z,18.68
2022-09-14T16:51:56.290Z,18.67
2022-09-14T16:54:25.877Z,18.65
2022-09-14T16:56:57.226Z,18.62
2022-09-14T16:59:25.769Z,18.54
2022-09-14T17:01:55.064Z,18.49
2022-09-14T17:04:24.013Z,18.51
2022-09-14T17:06:52.738Z,18.48
2022-09-14T17:09:24.353Z,18.42
2022-09-14T17:11:52.769Z,18.41
2022-09-14T17:14:25.468Z,18.35
2022-09-14T17:16:52.365Z,18.29
2022-09-14T17:19:20.069Z,18.27
2022-09-14T17:21:48.124Z,18.22
2022-09-14T17:24:16.625Z,18.15
2022-09-14T17:26:45.599Z,18.11
2022-09-14T17:29:12.697Z,18.11
2022-09-14T17:31:42.718Z,18.12
2022-09-14T17:34:12.130Z,18.05
2022-09-14T17:36:39.185Z,18.03
2022-09-14T17:39:11.576Z,18.02
2022-09-14T17:41:40.405Z,17.94
2022-09-14T17:44:11.292Z,18.01
2022-09-14T17:46:45.959Z,17.91
2022-09-14T17:49:18.325Z,17.98
2022-09-14T17:51:45.668Z,17.96
2022-09-14T17:54:12.726Z,17.95
2022-09-14T17:56:39.899Z,17.88
2022-09-14T17:59:22.474Z,17.88
2022-09-14T18:01:50.091Z,17.84
2022-09-14T18:04:17.626Z,17.85
2022-09-14T18:06:49.861Z,17.90
2022-09-14T18:09:21.526Z,17.83
2022-09-14T18:11:50.422Z,17.88
2022-09-14T18:14:17.991Z,17.94
2022-09-14T18:16:45.480Z,17.96
2022-09-14T18:19:12.302Z,17.92
2022-09-14T18:21:39.603Z,17.95
2022-09-14T18:24:07.537Z,17.94
2022-09-14T18:26:34.341Z,17.89
2022-09-14T18:29:01.559Z,17.88
2022-09-14T18:31:28.726Z,17.96
2022-09-14T18:34:00.184Z,17.95
2022-09-14T18:36:29.401Z,17.97
2022-09-14T18:38:58.064Z,17.94
2022-09-14T18:41:25.465Z,17.99
2022-09-14T18:43:53.306Z,18.03
2022-09-14T18:46:24.436Z,18.01
2022-09-14T18:48:54.417Z,17.96
2022-09-14T18:51:22.103Z,17.94
2022-09-14T18:53:49.107Z,17.99
2022-09-14T18:56:17.929Z,17.96
2022-09-14T18:58:47.209Z,17.96
2022-09-14T19:01:14.942Z,17.91
2022-09-14T19:03:43.568Z,17.96
2022-09-14T19:06:14.785Z,17.89
2022-09-14T19:08:50.266Z,17.94
2022-09-14T19:11:21.533Z,17.91
2022-09-14T19:13:54.381Z,17.89
2022-09-14T19:16:21.009Z,17.85
2022-09-14T19:18:49.352Z,17.89
2022-09-14T19:21:23.415Z,17.83
2022-09-14T19:24:00.637Z,17.83
2022-09-14T19:26:33.147Z,17.89
2022-09-14T19:29:04.134Z,17.82
2022-09-14T19:31:31.591Z,17.82
2022-09-14T19:34:00.910Z,17.81
2022-09-14T19:36:29.458Z,17.77
2022-09-14T19:39:01.080Z,17.73
2022-09-14T19:41:28.907Z,17.69
2022-09-14T19:43:55.493Z,17.59
2022-09-14T19:46:23.424Z,17.56
2022-09-14T19:48:52.410Z,17.57
2022-09-14T19:51:25.454Z,17.53
2022-09-14T19:53:54.715Z,17.55
2022-09-14T19:56:33.059Z,17.56
2022-09-14T19:59:06.029Z,17.56
2022-09-14T20:01:36.520Z,17.56
2022-09-14T20:04:06.017Z,17.65
2022-09-14T20:06:37.979Z,17.71
2022-09-14T20:09:11.738Z,17.67
2022-09-14T20:11:41.222Z,17.75
2022-09-14T20:14:12.507Z,17.72
2022-09-14T20:16:49.965Z,17.75
2022-09-14T20:19:20.559Z,17.81
2022-09-14T20:21:49.754Z,17.80
2022-09-14T20:24:26.157Z,17.76
2022-09-14T20:27:13.976Z,17.79
2022-09-14T20:29:59.363Z,17.72
2022-09-14T20:32:28.163Z,17.75
2022-09-14T20:34:56.193Z,17.70
2022-09-14T20:37:22.986Z,17.69
2022-09-14T20:39:50.115Z,17.57
2022-09-14T20:42:17.287Z,17.63
2022-09-14T20:44:46.376Z,17.51
2022-09-14T20:47:13.395Z,17.45
2022-09-14T20:49:40.076Z,17.48
2022-09-14T20:52:06.753Z,17.42
2022-09-14T20:54:33.589Z,17.41
2022-09-14T20:57:04.633Z,17.42
2022-09-14T20:59:49.941Z,17.43
2022-09-14T21:02:16.639Z,17.35
2022-09-14T21:04:43.449Z,17.29
2022-09-14T21:07:17.761Z,17.27
2022-09-14T21:09:44.744Z,17.16
2022-09-14T21:12:14.007Z,17.24
2022-09-14T21:14:40.994Z,17.31
2022-09-14T21:17:09.227Z,17.28
2022-09-14T21:19:37.805Z,17.30
2022-09-14T21:22:04.723Z,17.29
2022-09-14T21:24:35.142Z,17.30
2022-09-14T21:27:07.690Z,17.24
2022-09-14T21:29:34.433Z,17.26
2022-09-14T21:32:05.602Z,17.18
2022-09-14T21:34:35.509Z,17.23
2022-09-14T21:37:02.374Z,17.19
2022-09-14T21:39:29.821Z,17.19
2022-09-14T21:41:59.368Z,17.18
2022-09-14T21:44:37.049Z,17.17
2022-09-14T21:47:06.236Z,17.09
2022-09-14T21:49:33.590Z,17.11
2022-09-14T21:52:04.253Z,17.17
2022-09-14T21:54:37.195Z,17.06
2022-09-14T21:57:04.266Z,17.16
2022-09-14T21:59:32.065Z,17.10
2022-09-14T22:01:59.141Z,17.19
2022-09-14T22:04:26.877Z,17.14
2022-09-14T22:06:53.888Z,17.15
2022-09-14T22:09:25.136Z,17.18
2022-09-14T22:11:53.127Z,17.17
2022-09-14T22:14:26.219Z,17.08
2022-09-14T22:16:53.859Z,17.22
2022-09-14T22:19:30.605Z,17.16
2022-09-14T22:21:59.645Z,17.21
2022-09-14T22:24:37.920Z,17.19
2022-09-14T22:27:14.618Z,17.12
2022-09-14T22:29:41.455Z,17.18
2022-09-14T22:32:12.246Z,17.11
2022-09-14T22:34:41.506Z,17.19
2022-09-14T22:37:08.316Z,17.12
2022-09-14T22:39:35.236Z,17.11
2022-09-14T22:42:03.530Z,17.19
2022-09-14T22:44:30.223Z,17.18
2022-09-14T22:47:01.931Z,17.18
2022-09-14T22:49:30.747Z,17.22
2022-09-14T22:51:57.372Z,17.21
2022-09-14T22:54:24.049Z,17.23
2022-09-14T22:56:51.087Z,17.22
2022-09-14T22:59:17.787Z,17.28
2022-09-14T23:01:44.940Z,17.23
2022-09-14T23:04:13.922Z,17.29
2022-09-14T23:06:47.559Z,17.27
2022-09-14T23:09:22.003Z,17.32
2022-09-14T23:11:49.563Z,17.26
2022-09-14T23:14:16.633Z,17.30
2022-09-14T23:16:45.194Z,17.38
2022-09-14T23:19:16.890Z,17.32
2022-09-14T23:21:44.177Z,17.35
2022-09-14T23:24:15.469Z,17.27
2022-09-14T23:26:42.853Z,17.22
2022-09-14T23:29:16.153Z,17.29
2022-09-14T23:31:43.879Z,17.29
2022-09-14T23:34:10.794Z,17.32
2022-09-14T23:36:37.587Z,17.29
2022-09-14T23:39:04.433Z,17.31
2022-09-14T23:41:31.400Z,17.31
2022-09-14T23:43:58.921Z,17.36
2022-09-14T23:46:25.737Z,17.30
2022-09-14T23:48:52.900Z,17.39
2022-09-14T23:51:19.952Z,17.39
2022-09-14T23:53:46.816Z,17.33
2022-09-14T23:56:14.433Z,17.37
2022-09-14T23:58:42.193Z,17.36
